sensor_id;sensor_type;location;lat;lon;timestamp;temperature;humidity
38263;DHT22;24054;50.128;19.730;2023-04-07T00:00:59;21.10;50.40
38263;DHT22;24054;50.128;19.730;2023-04-07T00:03:28;21.10;50.40
38263;DHT22;24054;50.128;19.730;2023-04-07T00:05:55;21.00;50.30
38263;DHT22;24054;50.128;19.730;2023-04-07T00:08:22;21.00;50.30
38263;DHT22;24054;50.128;19.730;2023-04-07T00:10:49;21.00;50.30
38263;DHT22;24054;50.128;19.730;2023-04-07T00:13:16;21.00;50.20
38263;DHT22;24054;50.128;19.730;2023-04-07T00:15:43;21.00;50.20
38263;DHT22;24054;50.128;19.730;2023-04-07T00:18:10;21.00;50.20
38263;DHT22;24054;50.128;19.730;2023-04-07T00:20:38;21.00;50.20
38263;DHT22;24054;50.128;19.730;2023-04-07T00:23:05;20.90;50.10
38263;DHT22;24054;50.128;19.730;2023-04-07T00:25:32;20.90;50.10
38263;DHT22;24054;50.128;19.730;2023-04-07T00:27:59;20.90;50.10
38263;DHT22;24054;50.128;19.730;2023-04-07T00:30:26;20.90;50.10
38263;DHT22;24054;50.128;19.730;2023-04-07T00:32:53;20.90;50.10
38263;DHT22;24054;50.128;19.730;2023-04-07T00:35:20;20.90;50.10
38263;DHT22;24054;50.128;19.730;2023-04-07T00:37:48;20.90;50.00
38263;DHT22;24054;50.128;19.730;2023-04-07T00:40:16;20.80;50.00
38263;DHT22;24054;50.128;19.730;2023-04-07T00:42:43;20.80;50.00
38263;DHT22;24054;50.128;19.730;2023-04-07T00:45:10;20.90;50.70
38263;DHT22;24054;50.128;19.730;2023-04-07T00:47:37;20.80;50.00
38263;DHT22;24054;50.128;19.730;2023-04-07T00:50:05;20.90;50.00
38263;DHT22;24054;50.128;19.730;2023-04-07T00:52:33;20.80;50.00
38263;DHT22;24054;50.128;19.730;2023-04-07T00:55:01;20.80;49.90
38263;DHT22;24054;50.128;19.730;2023-04-07T00:57:28;20.80;49.90
38263;DHT22;24054;50.128;19.730;2023-04-07T00:59:55;20.80;49.90
38263;DHT22;24054;50.128;19.730;2023-04-07T01:02:25;20.80;49.90
38263;DHT22;24054;50.128;19.730;2023-04-07T01:05:01;20.80;49.90
38263;DHT22;24054;50.128;19.730;2023-04-07T01:07:34;20.70;49.80
38263;DHT22;24054;50.128;19.730;2023-04-07T01:10:05;20.80;49.80
38263;DHT22;24054;50.128;19.730;2023-04-07T01:12:36;20.80;49.80
38263;DHT22;24054;50.128;19.730;2023-04-07T01:15:08;20.80;49.80
38263;DHT22;24054;50.128;19.730;2023-04-07T01:17:37;20.70;49.80
38263;DHT22;24054;50.128;19.730;2023-04-07T01:20:06;20.70;49.80
38263;DHT22;24054;50.128;19.730;2023-04-07T01:22:41;20.70;49.80
38263;DHT22;24054;50.128;19.730;2023-04-07T01:25:34;20.70;49.70
38263;DHT22;24054;50.128;19.730;2023-04-07T01:28:14;20.70;49.80
38263;DHT22;24054;50.128;19.730;2023-04-07T01:30:51;20.70;49.70
38263;DHT22;24054;50.128;19.730;2023-04-07T01:33:20;20.70;49.70
38263;DHT22;24054;50.128;19.730;2023-04-07T01:35:48;20.60;49.60
38263;DHT22;24054;50.128;19.730;2023-04-07T01:38:16;20.60;49.60
38263;DHT22;24054;50.128;19.730;2023-04-07T01:40:44;20.60;49.60
38263;DHT22;24054;50.128;19.730;2023-04-07T01:43:12;20.60;49.60
38263;DHT22;24054;50.128;19.730;2023-04-07T01:45:40;20.60;49.60
38263;DHT22;24054;50.128;19.730;2023-04-07T01:48:10;20.60;50.10
38263;DHT22;24054;50.128;19.730;2023-04-07T01:50:37;20.60;49.50
38263;DHT22;24054;50.128;19.730;2023-04-07T01:53:04;20.60;49.60
38263;DHT22;24054;50.128;19.730;2023-04-07T01:55:33;20.60;49.50
38263;DHT22;24054;50.128;19.730;2023-04-07T01:58:03;20.60;49.50
38263;DHT22;24054;50.128;19.730;2023-04-07T02:00:30;20.60;49.50
38263;DHT22;24054;50.128;19.730;2023-04-07T02:03:04;20.60;49.50
38263;DHT22;24054;50.128;19.730;2023-04-07T02:05:36;20.60;49.40
38263;DHT22;24054;50.128;19.730;2023-04-07T02:08:06;20.50;49.40
38263;DHT22;24054;50.128;19.730;2023-04-07T02:10:36;20.50;49.30
38263;DHT22;24054;50.128;19.730;2023-04-07T02:13:05;20.50;49.30
38263;DHT22;24054;50.128;19.730;2023-04-07T02:15:35;20.50;49.40
38263;DHT22;24054;50.128;19.730;2023-04-07T02:18:02;20.50;49.40
38263;DHT22;24054;50.128;19.730;2023-04-07T02:20:30;20.50;49.40
38263;DHT22;24054;50.128;19.730;2023-04-07T02:22:58;20.50;49.30
38263;DHT22;24054;50.128;19.730;2023-04-07T02:25:27;20.50;49.30
38263;DHT22;24054;50.128;19.730;2023-04-07T02:27:56;20.40;49.30
38263;DHT22;24054;50.128;19.730;2023-04-07T02:30:23;20.50;49.20
38263;DHT22;24054;50.128;19.730;2023-04-07T02:32:50;20.50;49.30
38263;DHT22;24054;50.128;19.730;2023-04-07T02:35:17;20.40;49.20
38263;DHT22;24054;50.128;19.730;2023-04-07T02:37:45;20.50;49.20
38263;DHT22;24054;50.128;19.730;2023-04-07T02:40:14;20.40;49.10
38263;DHT22;24054;50.128;19.730;2023-04-07T02:42:41;20.40;49.10
38263;DHT22;24054;50.128;19.730;2023-04-07T02:45:09;20.40;49.10
38263;DHT22;24054;50.128;19.730;2023-04-07T02:47:37;20.40;49.10
38263;DHT22;24054;50.128;19.730;2023-04-07T02:50:05;20.40;49.10
38263;DHT22;24054;50.128;19.730;2023-04-07T02:52:32;20.40;49.10
38263;DHT22;24054;50.128;19.730;2023-04-07T02:54:59;20.40;49.10
38263;DHT22;24054;50.128;19.730;2023-04-07T02:57:28;20.40;49.10
38263;DHT22;24054;50.128;19.730;2023-04-07T02:59:55;20.40;49.00
38263;DHT22;24054;50.128;19.730;2023-04-07T03:02:22;20.40;49.00
38263;DHT22;24054;50.128;19.730;2023-04-07T03:04:50;20.40;49.00
38263;DHT22;24054;50.128;19.730;2023-04-07T03:07:17;20.40;49.00
38263;DHT22;24054;50.128;19.730;2023-04-07T03:09:44;20.30;49.00
38263;DHT22;24054;50.128;19.730;2023-04-07T03:12:11;20.30;49.00
38263;DHT22;24054;50.128;19.730;2023-04-07T03:14:40;20.30;49.00
38263;DHT22;24054;50.128;19.730;2023-04-07T03:17:07;20.30;48.90
38263;DHT22;24054;50.128;19.730;2023-04-07T03:19:34;20.30;49.00
38263;DHT22;24054;50.128;19.730;2023-04-07T03:22:01;20.30;49.00
38263;DHT22;24054;50.128;19.730;2023-04-07T03:24:28;20.30;48.90
38263;DHT22;24054;50.128;19.730;2023-04-07T03:26:55;20.30;49.00
38263;DHT22;24054;50.128;19.730;2023-04-07T03:29:22;20.30;48.90
38263;DHT22;24054;50.128;19.730;2023-04-07T03:31:50;20.30;49.00
38263;DHT22;24054;50.128;19.730;2023-04-07T03:34:17;20.30;48.90
38263;DHT22;24054;50.128;19.730;2023-04-07T03:36:44;20.20;48.80
38263;DHT22;24054;50.128;19.730;2023-04-07T03:39:11;20.20;48.90
38263;DHT22;24054;50.128;19.730;2023-04-07T03:41:38;20.20;48.80
38263;DHT22;24054;50.128;19.730;2023-04-07T03:44:05;20.20;48.80
38263;DHT22;24054;50.128;19.730;2023-04-07T03:46:32;20.20;48.80
38263;DHT22;24054;50.128;19.730;2023-04-07T03:49:00;20.20;48.70
38263;DHT22;24054;50.128;19.730;2023-04-07T03:51:27;20.20;48.80
38263;DHT22;24054;50.128;19.730;2023-04-07T03:53:54;20.20;48.80
38263;DHT22;24054;50.128;19.730;2023-04-07T03:56:21;20.20;48.70
38263;DHT22;24054;50.128;19.730;2023-04-07T03:58:49;20.20;48.70
38263;DHT22;24054;50.128;19.730;2023-04-07T04:01:16;20.20;48.70
38263;DHT22;24054;50.128;19.730;2023-04-07T04:03:43;20.20;48.70
38263;DHT22;24054;50.128;19.730;2023-04-07T04:06:11;20.10;48.60
38263;DHT22;24054;50.128;19.730;2023-04-07T04:08:38;20.10;48.70
38263;DHT22;24054;50.128;19.730;2023-04-07T04:11:05;20.10;48.60
38263;DHT22;24054;50.128;19.730;2023-04-07T04:13:32;20.10;48.60
38263;DHT22;24054;50.128;19.730;2023-04-07T04:15:59;20.10;48.60
38263;DHT22;24054;50.128;19.730;2023-04-07T04:18:26;20.10;48.60
38263;DHT22;24054;50.128;19.730;2023-04-07T04:20:53;20.10;48.60
38263;DHT22;24054;50.128;19.730;2023-04-07T04:23:22;20.10;48.60
38263;DHT22;24054;50.128;19.730;2023-04-07T04:25:48;20.10;48.60
38263;DHT22;24054;50.128;19.730;2023-04-07T04:28:16;20.10;48.50
38263;DHT22;24054;50.128;19.730;2023-04-07T04:30:43;20.10;48.60
38263;DHT22;24054;50.128;19.730;2023-04-07T04:33:10;20.10;48.60
38263;DHT22;24054;50.128;19.730;2023-04-07T04:35:37;20.10;48.60
38263;DHT22;24054;50.128;19.730;2023-04-07T04:38:04;20.10;48.60
38263;DHT22;24054;50.128;19.730;2023-04-07T04:40:32;20.10;48.50
38263;DHT22;24054;50.128;19.730;2023-04-07T04:43:00;20.10;48.50
38263;DHT22;24054;50.128;19.730;2023-04-07T04:45:31;20.00;48.50
38263;DHT22;24054;50.128;19.730;2023-04-07T04:47:58;20.10;48.50
38263;DHT22;24054;50.128;19.730;2023-04-07T04:50:25;20.10;48.50
38263;DHT22;24054;50.128;19.730;2023-04-07T04:52:52;20.10;48.50
38263;DHT22;24054;50.128;19.730;2023-04-07T04:55:19;20.00;48.40
38263;DHT22;24054;50.128;19.730;2023-04-07T04:57:47;20.00;48.50
38263;DHT22;24054;50.128;19.730;2023-04-07T05:00:15;20.00;48.40
38263;DHT22;24054;50.128;19.730;2023-04-07T05:02:42;20.00;48.50
38263;DHT22;24054;50.128;19.730;2023-04-07T05:05:09;20.00;48.40
38263;DHT22;24054;50.128;19.730;2023-04-07T05:07:36;20.00;48.40
38263;DHT22;24054;50.128;19.730;2023-04-07T05:10:06;20.00;48.40
38263;DHT22;24054;50.128;19.730;2023-04-07T05:12:33;20.00;48.50
38263;DHT22;24054;50.128;19.730;2023-04-07T05:15:01;20.00;48.70
38263;DHT22;24054;50.128;19.730;2023-04-07T05:17:28;20.10;48.90
38263;DHT22;24054;50.128;19.730;2023-04-07T05:19:55;20.00;48.80
38263;DHT22;24054;50.128;19.730;2023-04-07T05:22:22;20.10;48.90
38263;DHT22;24054;50.128;19.730;2023-04-07T05:24:49;20.10;48.90
38263;DHT22;24054;50.128;19.730;2023-04-07T05:27:16;20.10;48.90
38263;DHT22;24054;50.128;19.730;2023-04-07T05:29:43;20.20;49.60
38263;DHT22;24054;50.128;19.730;2023-04-07T05:32:15;20.30;50.30
38263;DHT22;24054;50.128;19.730;2023-04-07T05:34:41;20.30;50.90
38263;DHT22;24054;50.128;19.730;2023-04-07T05:37:08;20.30;51.20
38263;DHT22;24054;50.128;19.730;2023-04-07T05:39:35;20.50;51.80
38263;DHT22;24054;50.128;19.730;2023-04-07T05:42:02;20.50;51.70
38263;DHT22;24054;50.128;19.730;2023-04-07T05:44:29;20.50;51.70
38263;DHT22;24054;50.128;19.730;2023-04-07T05:46:56;20.60;52.00
38263;DHT22;24054;50.128;19.730;2023-04-07T05:49:27;20.60;52.40
38263;DHT22;24054;50.128;19.730;2023-04-07T05:51:54;20.70;52.50
38263;DHT22;24054;50.128;19.730;2023-04-07T05:54:21;20.80;52.60
38263;DHT22;24054;50.128;19.730;2023-04-07T05:56:48;20.80;52.80
38263;DHT22;24054;50.128;19.730;2023-04-07T05:59:15;20.80;52.60
38263;DHT22;24054;50.128;19.730;2023-04-07T06:01:42;20.90;52.60
38263;DHT22;24054;50.128;19.730;2023-04-07T06:04:09;20.90;52.80
38263;DHT22;24054;50.128;19.730;2023-04-07T06:06:40;20.90;52.50
38263;DHT22;24054;50.128;19.730;2023-04-07T06:09:07;20.90;52.50
38263;DHT22;24054;50.128;19.730;2023-04-07T06:11:34;21.00;52.50
38263;DHT22;24054;50.128;19.730;2023-04-07T06:14:01;21.00;52.40
38263;DHT22;24054;50.128;19.730;2023-04-07T06:16:28;21.00;52.30
38263;DHT22;24054;50.128;19.730;2023-04-07T06:18:55;21.10;52.30
38263;DHT22;24054;50.128;19.730;2023-04-07T06:21:22;21.10;52.20
38263;DHT22;24054;50.128;19.730;2023-04-07T06:23:51;21.10;52.10
38263;DHT22;24054;50.128;19.730;2023-04-07T06:26:18;21.10;51.80
38263;DHT22;24054;50.128;19.730;2023-04-07T06:28:46;21.10;51.90
38263;DHT22;24054;50.128;19.730;2023-04-07T06:31:13;21.20;52.10
38263;DHT22;24054;50.128;19.730;2023-04-07T06:33:41;21.10;51.80
38263;DHT22;24054;50.128;19.730;2023-04-07T06:36:08;21.20;51.60
38263;DHT22;24054;50.128;19.730;2023-04-07T06:38:35;21.20;51.40
38263;DHT22;24054;50.128;19.730;2023-04-07T06:41:06;21.20;51.40
38263;DHT22;24054;50.128;19.730;2023-04-07T06:43:36;21.20;51.20
38263;DHT22;24054;50.128;19.730;2023-04-07T06:46:03;21.20;51.20
38263;DHT22;24054;50.128;19.730;2023-04-07T06:48:30;21.20;51.10
38263;DHT22;24054;50.128;19.730;2023-04-07T06:50:57;21.30;51.30
38263;DHT22;24054;50.128;19.730;2023-04-07T06:53:25;21.20;51.50
38263;DHT22;24054;50.128;19.730;2023-04-07T06:56:03;21.30;51.70
38263;DHT22;24054;50.128;19.730;2023-04-07T06:58:31;21.30;51.80
38263;DHT22;24054;50.128;19.730;2023-04-07T07:00:58;21.30;51.70
38263;DHT22;24054;50.128;19.730;2023-04-07T07:03:25;21.30;51.60
38263;DHT22;24054;50.128;19.730;2023-04-07T07:05:53;21.40;51.60
38263;DHT22;24054;50.128;19.730;2023-04-07T07:08:21;21.40;51.60
38263;DHT22;24054;50.128;19.730;2023-04-07T07:10:49;21.40;51.60
38263;DHT22;24054;50.128;19.730;2023-04-07T07:13:18;21.40;51.70
38263;DHT22;24054;50.128;19.730;2023-04-07T07:15:48;21.50;52.00
38263;DHT22;24054;50.128;19.730;2023-04-07T07:18:16;21.50;51.90
38263;DHT22;24054;50.128;19.730;2023-04-07T07:20:43;21.50;51.90
38263;DHT22;24054;50.128;19.730;2023-04-07T07:23:10;21.50;51.90
38263;DHT22;24054;50.128;19.730;2023-04-07T07:25:37;21.50;51.90
38263;DHT22;24054;50.128;19.730;2023-04-07T07:28:04;21.60;52.10
38263;DHT22;24054;50.128;19.730;2023-04-07T07:30:33;21.60;52.30
38263;DHT22;24054;50.128;19.730;2023-04-07T07:33:00;21.60;52.30
38263;DHT22;24054;50.128;19.730;2023-04-07T07:35:27;21.60;52.30
38263;DHT22;24054;50.128;19.730;2023-04-07T07:37:54;21.70;52.80
38263;DHT22;24054;50.128;19.730;2023-04-07T07:40:21;21.70;52.40
38263;DHT22;24054;50.128;19.730;2023-04-07T07:42:49;21.70;52.40
38263;DHT22;24054;50.128;19.730;2023-04-07T07:45:16;21.80;52.40
38263;DHT22;24054;50.128;19.730;2023-04-07T07:47:45;21.80;52.40
38263;DHT22;24054;50.128;19.730;2023-04-07T07:50:12;21.80;52.60
38263;DHT22;24054;50.128;19.730;2023-04-07T07:52:40;21.80;52.60
38263;DHT22;24054;50.128;19.730;2023-04-07T07:55:08;21.90;52.50
38263;DHT22;24054;50.128;19.730;2023-04-07T07:57:35;21.90;52.40
38263;DHT22;24054;50.128;19.730;2023-04-07T08:00:02;21.90;52.40
38263;DHT22;24054;50.128;19.730;2023-04-07T08:02:30;22.00;52.60
38263;DHT22;24054;50.128;19.730;2023-04-07T08:05:00;22.00;52.60
38263;DHT22;24054;50.128;19.730;2023-04-07T08:07:28;22.00;52.60
38263;DHT22;24054;50.128;19.730;2023-04-07T08:09:56;22.00;52.70
38263;DHT22;24054;50.128;19.730;2023-04-07T08:12:26;22.00;52.70
38263;DHT22;24054;50.128;19.730;2023-04-07T08:14:54;22.10;52.70
38263;DHT22;24054;50.128;19.730;2023-04-07T08:17:21;22.10;52.80
38263;DHT22;24054;50.128;19.730;2023-04-07T08:19:49;22.10;52.70
38263;DHT22;24054;50.128;19.730;2023-04-07T08:22:18;22.10;52.80
38263;DHT22;24054;50.128;19.730;2023-04-07T08:24:45;22.10;52.90
38263;DHT22;24054;50.128;19.730;2023-04-07T08:27:13;22.10;53.00
38263;DHT22;24054;50.128;19.730;2023-04-07T08:29:40;22.20;53.30
38263;DHT22;24054;50.128;19.730;2023-04-07T08:32:07;22.20;53.30
38263;DHT22;24054;50.128;19.730;2023-04-07T08:34:34;22.20;53.20
38263;DHT22;24054;50.128;19.730;2023-04-07T08:37:01;22.30;53.30
38263;DHT22;24054;50.128;19.730;2023-04-07T08:39:29;22.30;53.50
38263;DHT22;24054;50.128;19.730;2023-04-07T08:41:56;22.30;53.50
38263;DHT22;24054;50.128;19.730;2023-04-07T08:44:25;22.30;53.50
38263;DHT22;24054;50.128;19.730;2023-04-07T08:46:56;22.30;53.50
38263;DHT22;24054;50.128;19.730;2023-04-07T08:49:23;22.40;53.50
38263;DHT22;24054;50.128;19.730;2023-04-07T08:51:55;22.40;53.40
38263;DHT22;24054;50.128;19.730;2023-04-07T08:54:26;22.40;53.30
38263;DHT22;24054;50.128;19.730;2023-04-07T08:56:54;22.40;53.30
38263;DHT22;24054;50.128;19.730;2023-04-07T08:59:21;22.40;53.50
38263;DHT22;24054;50.128;19.730;2023-04-07T09:01:51;22.40;53.50
38263;DHT22;24054;50.128;19.730;2023-04-07T09:04:19;22.50;53.60
38263;DHT22;24054;50.128;19.730;2023-04-07T09:06:48;22.40;53.70
38263;DHT22;24054;50.128;19.730;2023-04-07T09:09:15;22.50;53.80
38263;DHT22;24054;50.128;19.730;2023-04-07T09:11:42;22.50;53.70
38263;DHT22;24054;50.128;19.730;2023-04-07T09:14:12;22.50;53.80
38263;DHT22;24054;50.128;19.730;2023-04-07T09:16:40;22.50;53.80
38263;DHT22;24054;50.128;19.730;2023-04-07T09:19:08;22.50;53.80
38263;DHT22;24054;50.128;19.730;2023-04-07T09:21:48;22.60;53.70
38263;DHT22;24054;50.128;19.730;2023-04-07T09:24:23;22.50;52.40
38263;DHT22;24054;50.128;19.730;2023-04-07T09:26:51;22.50;52.80
38263;DHT22;24054;50.128;19.730;2023-04-07T09:29:35;22.50;52.10
38263;DHT22;24054;50.128;19.730;2023-04-07T09:32:02;22.50;51.90
38263;DHT22;24054;50.128;19.730;2023-04-07T09:34:32;22.40;52.00
38263;DHT22;24054;50.128;19.730;2023-04-07T09:37:00;22.40;51.60
38263;DHT22;24054;50.128;19.730;2023-04-07T09:39:27;22.30;51.70
38263;DHT22;24054;50.128;19.730;2023-04-07T09:41:56;22.40;52.00
38263;DHT22;24054;50.128;19.730;2023-04-07T09:44:24;22.30;51.80
38263;DHT22;24054;50.128;19.730;2023-04-07T09:46:53;22.30;51.60
38263;DHT22;24054;50.128;19.730;2023-04-07T09:49:21;22.30;51.50
38263;DHT22;24054;50.128;19.730;2023-04-07T09:51:53;22.20;51.50
38263;DHT22;24054;50.128;19.730;2023-04-07T09:54:35;22.20;51.20
38263;DHT22;24054;50.128;19.730;2023-04-07T09:57:03;22.10;51.50
38263;DHT22;24054;50.128;19.730;2023-04-07T09:59:31;22.20;51.60
38263;DHT22;24054;50.128;19.730;2023-04-07T10:02:00;22.10;51.50
38263;DHT22;24054;50.128;19.730;2023-04-07T10:04:28;22.10;52.10
38263;DHT22;24054;50.128;19.730;2023-04-07T10:06:56;22.10;52.10
38263;DHT22;24054;50.128;19.730;2023-04-07T10:09:26;22.10;52.40
38263;DHT22;24054;50.128;19.730;2023-04-07T10:11:54;22.10;52.60
38263;DHT22;24054;50.128;19.730;2023-04-07T10:14:29;22.10;52.60
38263;DHT22;24054;50.128;19.730;2023-04-07T10:16:57;22.10;52.80
38263;DHT22;24054;50.128;19.730;2023-04-07T10:19:29;22.10;53.10
38263;DHT22;24054;50.128;19.730;2023-04-07T10:21:58;22.10;53.20
38263;DHT22;24054;50.128;19.730;2023-04-07T10:24:43;22.10;53.20
38263;DHT22;24054;50.128;19.730;2023-04-07T10:27:16;22.20;53.30
38263;DHT22;24054;50.128;19.730;2023-04-07T10:29:46;22.10;53.70
38263;DHT22;24054;50.128;19.730;2023-04-07T10:32:14;22.20;54.00
38263;DHT22;24054;50.128;19.730;2023-04-07T10:35:00;22.20;54.20
38263;DHT22;24054;50.128;19.730;2023-04-07T10:37:28;22.20;54.20
38263;DHT22;24054;50.128;19.730;2023-04-07T10:40:26;22.20;54.40
38263;DHT22;24054;50.128;19.730;2023-04-07T10:42:53;22.30;54.50
38263;DHT22;24054;50.128;19.730;2023-04-07T10:45:51;22.30;54.70
38263;DHT22;24054;50.128;19.730;2023-04-07T10:48:21;22.30;54.70
38263;DHT22;24054;50.128;19.730;2023-04-07T10:51:14;22.30;54.70
38263;DHT22;24054;50.128;19.730;2023-04-07T10:57:12;22.40;54.70
38263;DHT22;24054;50.128;19.730;2023-04-07T11:00:12;22.40;54.70
38263;DHT22;24054;50.128;19.730;2023-04-07T11:02:32;22.50;54.90
38263;DHT22;24054;50.128;19.730;2023-04-07T11:05:00;22.50;55.00
38263;DHT22;24054;50.128;19.730;2023-04-07T11:07:49;22.50;55.00
38263;DHT22;24054;50.128;19.730;2023-04-07T11:10:16;22.50;55.00
38263;DHT22;24054;50.128;19.730;2023-04-07T11:13:04;22.60;55.00
38263;DHT22;24054;50.128;19.730;2023-04-07T11:15:32;22.60;55.00
38263;DHT22;24054;50.128;19.730;2023-04-07T11:18:10;22.60;55.10
38263;DHT22;24054;50.128;19.730;2023-04-07T11:20:42;22.70;55.20
38263;DHT22;24054;50.128;19.730;2023-04-07T11:23:10;22.60;55.20
38263;DHT22;24054;50.128;19.730;2023-04-07T11:25:37;22.70;55.10
38263;DHT22;24054;50.128;19.730;2023-04-07T11:28:09;22.70;55.10
38263;DHT22;24054;50.128;19.730;2023-04-07T11:30:38;22.70;55.00
38263;DHT22;24054;50.128;19.730;2023-04-07T11:33:06;22.70;54.20
38263;DHT22;24054;50.128;19.730;2023-04-07T11:35:34;22.70;54.40
38263;DHT22;24054;50.128;19.730;2023-04-07T11:38:02;22.70;54.30
38263;DHT22;24054;50.128;19.730;2023-04-07T11:40:33;22.70;54.30
38263;DHT22;24054;50.128;19.730;2023-04-07T11:43:02;22.70;54.10
38263;DHT22;24054;50.128;19.730;2023-04-07T11:45:40;22.70;54.30
38263;DHT22;24054;50.128;19.730;2023-04-07T11:48:25;22.70;54.10
38263;DHT22;24054;50.128;19.730;2023-04-07T11:50:53;22.70;54.20
38263;DHT22;24054;50.128;19.730;2023-04-07T11:53:27;22.70;54.10
38263;DHT22;24054;50.128;19.730;2023-04-07T11:56:03;22.70;54.10
38263;DHT22;24054;50.128;19.730;2023-04-07T11:58:32;22.70;54.10
38263;DHT22;24054;50.128;19.730;2023-04-07T12:01:00;22.70;54.20
38263;DHT22;24054;50.128;19.730;2023-04-07T12:03:30;22.70;54.20
38263;DHT22;24054;50.128;19.730;2023-04-07T12:06:00;22.70;54.30
38263;DHT22;24054;50.128;19.730;2023-04-07T12:08:38;22.70;54.00
38263;DHT22;24054;50.128;19.730;2023-04-07T12:11:07;22.70;53.60
38263;DHT22;24054;50.128;19.730;2023-04-07T12:13:35;22.60;53.20
38263;DHT22;24054;50.128;19.730;2023-04-07T12:16:02;22.60;53.00
38263;DHT22;24054;50.128;19.730;2023-04-07T12:18:30;22.50;52.60
38263;DHT22;24054;50.128;19.730;2023-04-07T12:20:58;22.50;52.50
38263;DHT22;24054;50.128;19.730;2023-04-07T12:23:25;22.50;52.40
38263;DHT22;24054;50.128;19.730;2023-04-07T12:25:52;22.50;52.60
38263;DHT22;24054;50.128;19.730;2023-04-07T12:28:20;22.40;52.20
38263;DHT22;24054;50.128;19.730;2023-04-07T12:30:47;22.40;52.20
38263;DHT22;24054;50.128;19.730;2023-04-07T12:33:15;22.40;52.20
38263;DHT22;24054;50.128;19.730;2023-04-07T12:35:42;22.30;51.80
38263;DHT22;24054;50.128;19.730;2023-04-07T12:38:09;22.30;51.60
38263;DHT22;24054;50.128;19.730;2023-04-07T12:40:36;22.30;51.70
38263;DHT22;24054;50.128;19.730;2023-04-07T12:43:06;22.30;51.60
38263;DHT22;24054;50.128;19.730;2023-04-07T12:45:35;22.20;51.70
38263;DHT22;24054;50.128;19.730;2023-04-07T12:48:02;22.20;51.60
38263;DHT22;24054;50.128;19.730;2023-04-07T12:50:30;22.20;51.70
38263;DHT22;24054;50.128;19.730;2023-04-07T12:52:57;22.10;51.90
38263;DHT22;24054;50.128;19.730;2023-04-07T12:55:28;22.10;52.00
38263;DHT22;24054;50.128;19.730;2023-04-07T12:57:55;22.10;52.00
38263;DHT22;24054;50.128;19.730;2023-04-07T13:00:22;22.10;52.10
38263;DHT22;24054;50.128;19.730;2023-04-07T13:02:51;22.00;52.10
38263;DHT22;24054;50.128;19.730;2023-04-07T13:05:20;22.00;52.20
38263;DHT22;24054;50.128;19.730;2023-04-07T13:07:47;22.00;52.70
38263;DHT22;24054;50.128;19.730;2023-04-07T13:10:15;22.00;52.30
38263;DHT22;24054;50.128;19.730;2023-04-07T13:12:42;22.00;51.80
38263;DHT22;24054;50.128;19.730;2023-04-07T13:15:09;22.00;51.40
